Time;durP1;ratioP1;P1;durP2;ratioP2;P2;SDS_P1;SDS_P2;PMS_P1;PMS_P2;Temp;Humidity;BMP_temperature;BMP_pressure;BME280_temperature;BME280_humidity;BME280_pressure;Samples;Min_cycle;Max_cycle;Signal;HPM_P1;HPM_P2
2022/04/11 00:01:51;;;;;;;1.30;0.95;;;;;;;19.20;41.11;101960.97;5132020;27;20023;-56
2022/04/11 00:04:16;;;;;;;1.08;0.90;;;;;;;19.20;40.82;101957.44;5144886;27;20027;-56
2022/04/11 00:06:41;;;;;;;1.48;1.00;;;;;;;19.18;40.82;101949.47;5144974;27;20035;-57
2022/04/11 00:09:07;;;;;;;1.58;0.90;;;;;;;19.17;41.13;101958.56;5144989;27;20034;-57
2022/04/11 00:11:32;;;;;;;1.10;0.82;;;;;;;19.17;41.15;101952.31;5126369;27;20034;-57
2022/04/11 00:13:57;;;;;;;1.30;1.00;;;;;;;19.16;41.27;101948.78;5145448;27;20030;-57
2022/04/11 00:16:23;;;;;;;2.00;1.20;;;;;;;19.14;41.12;101947.22;5145584;27;20483;-57
2022/04/11 00:18:48;;;;;;;1.20;0.93;;;;;;;19.16;40.93;101945.25;5145599;27;20027;-57
2022/04/11 00:21:13;;;;;;;1.48;0.82;;;;;;;19.14;41.05;101950.75;5145223;27;20060;-57
2022/04/11 00:23:39;;;;;;;1.10;1.00;;;;;;;19.11;40.97;101944.78;5143427;27;20035;-57
2022/04/11 00:26:04;;;;;;;1.48;0.85;;;;;;;19.13;41.04;101948.22;5125791;27;20051;-56
2022/04/11 00:28:29;;;;;;;1.42;1.00;;;;;;;19.11;40.81;101947.50;5145671;27;20066;-57
2022/04/11 00:30:54;;;;;;;1.20;0.90;;;;;;;19.11;41.01;101948.34;5145052;27;20023;-57
2022/04/11 00:33:20;;;;;;;2.15;1.15;;;;;;;19.11;40.92;101944.78;5145283;27;20051;-57
2022/04/11 00:35:46;;;;;;;1.42;0.88;;;;;;;19.09;40.89;101936.88;5144997;27;20031;-55
2022/04/11 00:38:12;;;;;;;1.55;0.95;;;;;;;19.09;41.11;101939.56;5137778;27;20043;-57
2022/04/11 00:40:37;;;;;;;1.52;1.05;;;;;;;19.07;40.94;101935.28;5124134;28;20035;-57
2022/04/11 00:43:02;;;;;;;1.23;0.95;;;;;;;19.07;40.93;101935.28;5123847;28;20035;-58
2022/04/11 00:45:27;;;;;;;0.98;0.88;;;;;;;19.06;40.65;101933.59;5128674;27;20033;-58
2022/04/11 00:47:53;;;;;;;1.42;1.00;;;;;;;19.03;40.98;101925.78;5144156;27;20035;-57
2022/04/11 00:50:18;;;;;;;1.23;1.00;;;;;;;19.04;40.83;101924.81;5109500;27;20075;-57
2022/04/11 00:52:54;;;;;;;1.75;0.90;;;;;;;19.05;40.76;101931.91;5126074;27;20039;-57
2022/04/11 00:55:23;;;;;;;1.73;1.23;;;;;;;19.03;40.75;101933.88;5144412;27;20027;-57
2022/04/11 00:57:48;;;;;;;1.13;0.95;;;;;;;19.01;41.11;101919.72;5126098;27;20033;-57
2022/04/11 01:00:14;;;;;;;1.50;1.13;;;;;;;19.00;40.84;101926.13;5126945;27;20063;-57
2022/04/11 01:02:40;;;;;;;1.13;0.80;;;;;;;19.00;40.93;101923.41;5132862;27;20496;-57
2022/04/11 01:05:09;;;;;;;1.52;1.10;;;;;;;19.00;40.79;101926.13;5144956;27;20082;-56
2022/04/11 01:07:37;;;;;;;1.23;0.93;;;;;;;18.95;40.77;101918.47;5144473;27;20025;-57
2022/04/11 01:10:04;;;;;;;1.63;1.10;;;;;;;18.96;40.60;101915.59;5143144;27;20059;-57
2022/04/11 01:12:30;;;;;;;1.52;1.05;;;;;;;18.96;40.88;101915.59;5143905;27;20030;-57
2022/04/11 01:14:55;;;;;;;1.20;0.93;;;;;;;18.95;40.76;101902.28;5144373;27;20012;-57
2022/04/11 01:17:31;;;;;;;0.80;0.80;;;;;;;18.92;40.85;101897.19;5144627;27;20046;-57
2022/04/11 01:19:56;;;;;;;1.48;1.00;;;;;;;18.92;40.72;101898.03;5132756;27;20049;-57
2022/04/11 01:22:21;;;;;;;1.00;0.90;;;;;;;18.92;41.00;101899.88;5122534;28;20028;-57
2022/04/11 01:24:47;;;;;;;1.10;0.85;;;;;;;18.91;40.92;101906.28;5123576;28;20034;-57
2022/04/11 01:27:12;;;;;;;0.95;0.82;;;;;;;18.90;40.60;101908.13;5123346;28;20035;-57
2022/04/11 01:29:37;;;;;;;1.30;1.10;;;;;;;18.90;40.95;101915.31;5122570;28;20027;-56
2022/04/11 01:32:04;;;;;;;1.30;1.05;;;;;;;18.89;40.74;101906.41;5105628;28;20032;-54
2022/04/11 01:34:29;;;;;;;1.50;0.93;;;;;;;18.88;40.83;101906.56;5124150;28;20073;-57
2022/04/11 01:36:54;;;;;;;1.23;0.90;;;;;;;18.84;40.66;101905.97;5123487;28;20110;-56
2022/04/11 01:39:20;;;;;;;1.10;1.00;;;;;;;18.87;40.67;101907.56;5123331;28;20048;-56
2022/04/11 01:41:45;;;;;;;1.20;1.10;;;;;;;18.84;40.65;101905.97;5121825;28;20046;-57
2022/04/11 01:44:10;;;;;;;1.27;0.88;;;;;;;18.84;40.87;101902.44;5123721;28;20036;-56
2022/04/11 01:46:35;;;;;;;1.70;1.23;;;;;;;18.81;40.82;101900.88;5137611;28;20026;-56
2022/04/11 01:49:01;;;;;;;1.25;1.05;;;;;;;18.81;40.82;101900.03;5144213;28;20023;-57
2022/04/11 01:51:26;;;;;;;1.20;1.05;;;;;;;18.79;40.44;101902.03;5143763;27;20019;-57
2022/04/11 01:53:51;;;;;;;1.33;1.00;;;;;;;18.81;40.70;101900.88;5136862;28;20106;-57
2022/04/11 01:56:16;;;;;;;0.90;0.80;;;;;;;18.80;40.49;101890.25;5122702;28;20028;-57
2022/04/11 01:58:42;;;;;;;1.10;1.00;;;;;;;18.79;40.52;101897.50;5122426;28;20062;-57
2022/04/11 02:01:07;;;;;;;0.95;0.90;;;;;;;18.78;40.53;101901.19;5123083;28;20020;-57
2022/04/11 02:03:32;;;;;;;1.27;1.02;;;;;;;18.77;40.80;101904.00;5139948;28;20033;-57
2022/04/11 02:05:57;;;;;;;1.25;1.00;;;;;;;18.76;40.75;101900.47;5143904;28;20027;-57
2022/04/11 02:08:23;;;;;;;1.45;0.85;;;;;;;18.75;40.67;101904.16;5140398;28;20103;-57
2022/04/11 02:10:48;;;;;;;1.17;0.98;;;;;;;18.75;40.47;101909.53;5123009;28;20038;-55
2022/04/11 02:13:13;;;;;;;0.90;0.80;;;;;;;18.71;40.55;101895.50;5123196;28;20035;-57
2022/04/11 02:15:39;;;;;;;1.13;1.00;;;;;;;18.72;40.75;101907.13;5123399;28;20027;-55
2022/04/11 02:18:04;;;;;;;1.17;0.90;;;;;;;18.72;40.44;101907.13;5123603;28;20118;-57
2022/04/11 02:20:30;;;;;;;1.67;1.00;;;;;;;18.68;40.65;101900.28;5104865;28;20040;-57
2022/04/11 02:22:57;;;;;;;1.25;1.15;;;;;;;18.70;40.60;101906.44;5123062;28;20080;-57
2022/04/11 02:25:24;;;;;;;0.98;0.82;;;;;;;18.68;40.51;101894.91;5104615;28;20099;-56
2022/04/11 02:27:50;;;;;;;0.70;0.70;;;;;;;18.68;40.56;101905.69;5123013;28;20027;-57
2022/04/11 02:30:16;;;;;;;2.03;1.17;;;;;;;18.67;40.36;101898.59;5142862;28;20088;-57
2022/04/11 02:32:43;;;;;;;1.30;0.90;;;;;;;18.66;40.65;101903.13;5126156;27;20030;-57
2022/04/11 02:35:08;;;;;;;1.52;1.00;;;;;;;18.66;40.39;101905.00;5147516;27;20019;-56
2022/04/11 02:37:34;;;;;;;0.80;0.80;;;;;;;18.62;40.47;101899.03;5128672;27;20047;-57
2022/04/11 02:40:00;;;;;;;0.98;0.88;;;;;;;18.61;40.43;101896.50;5146650;27;20051;-56
2022/04/11 02:42:26;;;;;;;0.80;0.80;;;;;;;18.62;40.39;101900.88;5146751;27;20052;-57
2022/04/11 02:44:52;;;;;;;1.05;0.90;;;;;;;18.62;40.42;101899.03;5147314;27;20027;-57
2022/04/11 02:47:18;;;;;;;0.98;0.82;;;;;;;18.60;40.60;101895.59;5147184;27;20070;-57
2022/04/11 02:49:43;;;;;;;0.80;0.80;;;;;;;18.60;40.59;101894.75;5147027;27;20074;-57
2022/04/11 02:52:09;;;;;;;1.23;1.10;;;;;;;18.60;40.56;101897.47;5146905;27;20031;-55
2022/04/11 02:54:36;;;;;;;1.08;0.90;;;;;;;18.58;40.48;101891.38;5145008;27;20039;-57
2022/04/11 02:57:01;;;;;;;0.90;0.90;;;;;;;18.57;40.36;101895.06;5146633;27;20027;-57
2022/04/11 02:59:26;;;;;;;1.08;0.80;;;;;;;18.56;40.55;101896.88;5128686;27;20023;-56
2022/04/11 03:01:51;;;;;;;0.80;0.73;;;;;;;18.56;40.35;101896.03;5147045;27;20023;-56
2022/04/11 03:04:17;;;;;;;1.23;1.00;;;;;;;18.54;40.38;101898.03;5147031;27;20102;-56
2022/04/11 03:06:42;;;;;;;1.08;0.90;;;;;;;18.54;40.52;101898.03;5146681;27;20063;-57
2022/04/11 03:09:08;;;;;;;1.17;1.08;;;;;;;18.53;40.34;101893.66;5146824;27;20034;-56
2022/04/11 03:11:34;;;;;;;1.10;1.00;;;;;;;18.52;40.37;101900.88;5146056;27;20030;-57
2022/04/11 03:13:59;;;;;;;1.00;0.90;;;;;;;18.51;40.69;101885.69;5146896;27;20024;-57
2022/04/11 03:16:24;;;;;;;0.80;0.80;;;;;;;18.50;40.65;101886.69;5128325;27;20068;-56
2022/04/11 03:18:49;;;;;;;0.70;0.70;;;;;;;18.49;40.38;101887.69;5146627;27;20360;-57
2022/04/11 03:21:15;;;;;;;1.25;0.95;;;;;;;18.47;40.59;101885.13;5146439;27;20023;-57
2022/04/11 03:23:40;;;;;;;0.80;0.80;;;;;;;18.47;40.06;101885.13;5146010;27;20027;-57
2022/04/11 03:26:05;;;;;;;1.10;1.00;;;;;;;18.48;40.49;101883.31;5127309;27;20163;-57
2022/04/11 03:28:30;;;;;;;1.00;0.90;;;;;;;18.46;40.35;101879.91;5146938;27;20068;-57
2022/04/11 03:30:55;;;;;;;1.08;0.90;;;;;;;18.45;40.33;101878.19;5146234;27;20115;-57
2022/04/11 03:33:21;;;;;;;1.05;1.00;;;;;;;18.43;40.45;101874.78;5128048;27;20047;-56
2022/04/11 03:35:46;;;;;;;0.75;0.70;;;;;;;18.42;40.30;101871.25;5146112;27;20033;-57
2022/04/11 03:38:11;;;;;;;0.93;0.80;;;;;;;18.40;40.33;101870.56;5146040;27;20431;-56
2022/04/11 03:40:37;;;;;;;1.10;1.00;;;;;;;18.41;40.32;101872.25;5145758;27;20387;-56
2022/04/11 03:43:03;;;;;;;1.20;1.10;;;;;;;18.40;40.23;101873.25;5145776;27;20035;-57
2022/04/11 03:45:28;;;;;;;1.15;1.00;;;;;;;18.39;40.32;101871.56;5144991;27;20093;-57
2022/04/11 03:47:53;;;;;;;1.10;0.93;;;;;;;18.38;40.55;101871.66;5146004;27;20033;-57
2022/04/11 03:50:19;;;;;;;1.08;0.98;;;;;;;18.36;40.59;101871.81;5146070;27;20437;-57
2022/04/11 03:52:44;;;;;;;1.23;1.13;;;;;;;18.35;40.39;101874.63;5145418;27;20115;-57
2022/04/11 03:55:09;;;;;;;1.05;0.95;;;;;;;18.35;40.21;101869.25;5125277;28;20020;-59
2022/04/11 03:57:34;;;;;;;0.95;0.85;;;;;;;18.33;40.26;101872.09;5106584;28;20085;-57
2022/04/11 04:00:00;;;;;;;1.25;1.10;;;;;;;18.33;40.42;101871.25;5125200;28;20058;-57
2022/04/11 04:02:25;;;;;;;0.93;0.90;;;;;;;18.32;40.33;101869.56;5132092;27;20011;-57
2022/04/11 04:04:50;;;;;;;0.90;0.90;;;;;;;18.33;40.36;101873.94;5145552;27;20038;-57
2022/04/11 04:07:16;;;;;;;1.10;0.82;;;;;;;18.27;40.19;101867.28;5145523;27;20062;-57
2022/04/11 04:09:41;;;;;;;1.20;1.05;;;;;;;18.31;40.21;101867.84;5144997;27;20034;-56
2022/04/11 04:12:07;;;;;;;1.20;1.10;;;;;;;18.28;40.46;101868.97;5145305;27;20027;-56
2022/04/11 04:14:32;;;;;;;1.08;0.90;;;;;;;18.28;40.49;101874.38;5145697;27;20030;-57
2022/04/11 04:16:57;;;;;;;1.00;0.90;;;;;;;18.27;40.30;101869.13;5127039;27;20031;-57
2022/04/11 04:19:22;;;;;;;1.17;1.08;;;;;;;18.26;40.47;101868.25;5145643;27;20054;-57
2022/04/11 04:21:49;;;;;;;1.40;1.00;;;;;;;18.24;40.37;101867.56;5145054;27;20037;-57
2022/04/11 04:24:14;;;;;;;1.23;1.13;;;;;;;18.24;40.15;101868.41;5129781;27;20036;-57
2022/04/11 04:26:39;;;;;;;1.83;1.00;;;;;;;18.24;40.39;101864.88;5123694;27;20067;-57
2022/04/11 04:29:05;;;;;;;0.93;0.93;;;;;;;18.21;40.42;101860.59;5143038;27;20034;-58
2022/04/11 04:31:30;;;;;;;1.05;0.90;;;;;;;18.19;40.63;101867.16;5144433;27;20051;-58
2022/04/11 04:33:55;;;;;;;0.93;0.70;;;;;;;18.15;40.79;101863.03;5144864;27;20039;-57
2022/04/11 04:36:20;;;;;;;0.90;0.80;;;;;;;18.14;40.80;101861.34;5132743;27;20079;-57
2022/04/11 04:38:46;;;;;;;0.90;0.85;;;;;;;18.13;40.63;101863.16;5123960;28;20072;-56
2022/04/11 04:41:11;;;;;;;0.93;0.82;;;;;;;18.13;40.84;101862.31;5142314;27;20023;-57
2022/04/11 04:43:36;;;;;;;0.98;0.90;;;;;;;18.11;40.78;101867.84;5144359;27;20049;-56
2022/04/11 04:46:01;;;;;;;1.25;0.90;;;;;;;18.12;40.95;101876.75;5144457;27;20023;-57
2022/04/11 04:48:27;;;;;;;0.98;0.82;;;;;;;18.11;41.04;101867.00;5144392;27;20031;-57
2022/04/11 04:50:52;;;;;;;1.00;0.90;;;;;;;18.08;40.87;101862.72;5132975;27;20083;-57
2022/04/11 04:53:17;;;;;;;1.15;0.80;;;;;;;18.06;40.89;101863.88;5141289;27;20054;-56
2022/04/11 04:55:42;;;;;;;1.20;0.82;;;;;;;18.08;40.85;101867.25;5140328;27;20023;-57
2022/04/11 04:58:08;;;;;;;0.82;0.82;;;;;;;18.08;40.86;101868.09;5125440;27;20035;-56
2022/04/11 05:00:33;;;;;;;0.85;0.85;;;;;;;18.04;40.91;101858.63;5144030;27;20031;-57
2022/04/11 05:02:58;;;;;;;0.70;0.70;;;;;;;18.05;40.87;101862.16;5114118;28;20027;-57
2022/04/11 05:05:23;;;;;;;0.93;0.90;;;;;;;18.08;40.91;101864.56;5122558;27;20020;-57
2022/04/11 05:07:48;;;;;;;0.98;0.90;;;;;;;18.06;40.87;101859.34;5140178;27;20061;-57
2022/04/11 05:10:14;;;;;;;1.50;1.27;;;;;;;18.05;40.93;101862.16;5132109;27;20098;-56
2022/04/11 05:12:41;;;;;;;0.93;0.82;;;;;;;18.02;41.03;101855.22;5138363;27;20062;-55
2022/04/11 05:15:06;;;;;;;1.00;0.80;;;;;;;18.05;41.01;101862.16;5135573;27;20026;-56
2022/04/11 05:17:32;;;;;;;1.42;0.95;;;;;;;18.04;41.10;101861.31;5144534;27;20019;-57
2022/04/11 05:19:57;;;;;;;1.27;0.98;;;;;;;18.03;41.11;101859.63;5140851;27;20030;-57
2022/04/11 05:22:22;;;;;;;0.90;0.90;;;;;;;18.04;41.01;101866.69;5142951;27;20184;-57
2022/04/11 05:24:47;;;;;;;1.05;0.88;;;;;;;18.04;40.95;101863.16;5141917;28;20029;-57
2022/04/11 05:27:12;;;;;;;1.30;1.05;;;;;;;18.03;40.92;101865.00;5140117;28;20041;-57
2022/04/11 05:29:38;;;;;;;0.98;0.95;;;;;;;18.02;40.97;101860.59;5141130;28;20059;-56
2022/04/11 05:32:03;;;;;;;0.88;0.88;;;;;;;18.02;41.11;101860.59;5137285;28;20071;-57
2022/04/11 05:34:29;;;;;;;1.15;0.82;;;;;;;18.02;41.12;101865.16;5133793;28;20019;-57
2022/04/11 05:36:54;;;;;;;0.88;0.88;;;;;;;18.02;41.28;101859.75;5138230;28;20361;-57
2022/04/11 05:39:19;;;;;;;1.00;0.90;;;;;;;18.01;41.33;101856.22;5143501;28;20043;-57
2022/04/11 05:41:44;;;;;;;1.00;0.90;;;;;;;17.98;41.18;101851.97;5142130;28;20027;-57
2022/04/11 05:44:10;;;;;;;1.42;0.80;;;;;;;18.00;41.05;101851.81;5139011;28;20031;-57
2022/04/11 05:46:35;;;;;;;1.00;0.90;;;;;;;17.99;41.15;101856.34;5137940;28;20034;-57
2022/04/11 05:49:00;;;;;;;1.10;1.00;;;;;;;17.97;41.11;101855.66;5140712;28;20054;-57
2022/04/11 05:51:26;;;;;;;1.13;0.95;;;;;;;18.00;41.25;101859.88;5131629;28;20504;-57
2022/04/11 05:53:51;;;;;;;1.10;1.00;;;;;;;17.99;41.09;101856.34;5141230;28;20386;-57
2022/04/11 05:56:16;;;;;;;1.08;0.82;;;;;;;17.99;41.41;101858.19;5140010;28;20019;-56
2022/04/11 05:58:42;;;;;;;1.20;1.10;;;;;;;17.98;41.27;101851.13;5140582;28;20020;-57
2022/04/11 06:01:07;;;;;;;1.08;0.95;;;;;;;17.98;41.26;101859.19;5143088;28;20026;-57
2022/04/11 06:03:32;;;;;;;1.05;0.80;;;;;;;17.97;41.19;101852.09;5140513;28;20007;-57
2022/04/11 06:05:57;;;;;;;1.00;0.82;;;;;;;17.97;41.10;101857.50;5140369;28;20043;-57
2022/04/11 06:08:22;;;;;;;0.80;0.80;;;;;;;17.97;41.27;101860.19;5142652;27;20027;-57
2022/04/11 06:10:48;;;;;;;0.80;0.80;;;;;;;17.96;41.13;101855.75;5146851;27;20023;-57
2022/04/11 06:13:13;;;;;;;0.80;0.80;;;;;;;17.97;41.45;101857.50;5145219;27;20011;-57
2022/04/11 06:15:38;;;;;;;0.88;0.88;;;;;;;17.95;41.32;101854.91;5147277;27;20031;-57
2022/04/11 06:18:03;;;;;;;2.08;1.10;;;;;;;17.95;41.40;101860.31;5141737;27;20038;-57
2022/04/11 06:20:29;;;;;;;2.47;1.77;;;;;;;17.94;41.38;101863.16;5146611;27;20030;-55
2022/04/11 06:22:54;;;;;;;2.33;0.90;;;;;;;17.95;41.32;101867.53;5147071;27;20027;-59
2022/04/11 06:25:19;;;;;;;0.93;0.90;;;;;;;17.92;41.29;101849.81;5138595;27;20103;-58
2022/04/11 06:27:44;;;;;;;1.25;1.00;;;;;;;17.95;41.44;101867.53;5145644;27;20119;-57
2022/04/11 06:30:10;;;;;;;1.13;1.00;;;;;;;17.95;41.34;101870.22;5143638;27;20027;-58
2022/04/11 06:32:35;;;;;;;0.73;0.70;;;;;;;17.95;41.01;101873.75;5145101;27;20033;-57
2022/04/11 06:35:01;;;;;;;1.45;0.93;;;;;;;17.95;41.12;101879.13;5131830;27;20480;-59
2022/04/11 06:37:26;;;;;;;1.10;1.00;;;;;;;17.97;41.34;101889.78;5145860;27;20033;-57
2022/04/11 06:39:52;;;;;;;2.28;1.10;;;;;;;17.97;41.20;101889.78;5137124;27;20026;-57
2022/04/11 06:42:18;;;;;;;1.40;0.90;;;;;;;17.95;41.13;101880.97;5146452;27;20056;-57
2022/04/11 06:44:44;;;;;;;1.10;1.00;;;;;;;17.97;41.31;101882.56;5146685;27;20043;-57
2022/04/11 06:47:09;;;;;;;1.23;1.05;;;;;;;17.98;41.29;101878.03;5142377;27;20032;-57
2022/04/11 06:49:35;;;;;;;1.48;1.17;;;;;;;17.98;41.48;101895.00;5141351;27;20091;-58
2022/04/11 06:52:00;;;;;;;1.67;1.30;;;;;;;17.96;41.38;101894.28;5146329;27;20031;-59
2022/04/11 06:54:26;;;;;;;1.48;1.02;;;;;;;17.94;41.42;101885.50;5130845;27;20031;-57
2022/04/11 06:56:51;;;;;;;1.48;1.10;;;;;;;17.92;41.51;101890.16;5125014;27;20431;-58
2022/04/11 06:59:16;;;;;;;1.40;1.08;;;;;;;17.92;41.36;101889.31;5147106;27;20023;-58
2022/04/11 07:01:42;;;;;;;1.52;1.00;;;;;;;17.92;41.29;101881.25;5134769;27;20114;-58
2022/04/11 07:04:07;;;;;;;0.98;0.95;;;;;;;17.96;41.44;101875.44;5146283;27;20038;-58
2022/04/11 07:06:33;;;;;;;1.20;1.10;;;;;;;17.99;41.30;101885.09;5143046;27;20084;-58
2022/04/11 07:08:58;;;;;;;1.10;1.00;;;;;;;18.03;41.13;101880.28;5146358;27;20039;-59
2022/04/11 07:11:23;;;;;;;1.35;1.25;;;;;;;18.06;41.25;101874.63;5145792;27;20058;-58
2022/04/11 07:13:48;;;;;;;0.80;0.80;;;;;;;18.07;41.05;101869.09;5146477;27;20026;-58
2022/04/11 07:16:13;;;;;;;2.05;0.98;;;;;;;18.09;40.98;101869.81;5146308;27;20042;-58
2022/04/11 07:18:39;;;;;;;1.15;1.05;;;;;;;18.14;40.80;101872.09;5146424;27;20031;-58
2022/04/11 07:21:04;;;;;;;1.58;1.00;;;;;;;18.15;40.76;101871.09;5145929;27;20027;-58
2022/04/11 07:23:29;;;;;;;1.42;1.02;;;;;;;18.15;40.71;101869.25;5145885;27;20042;-58
2022/04/11 07:25:54;;;;;;;1.83;1.05;;;;;;;18.14;40.78;101866.72;5145487;27;20042;-55
2022/04/11 07:28:20;;;;;;;1.67;1.20;;;;;;;18.16;40.88;101872.81;5146093;27;20027;-58
2022/04/11 07:30:45;;;;;;;1.10;1.00;;;;;;;18.16;40.55;101870.09;5146358;27;20033;-58
2022/04/11 07:33:10;;;;;;;1.17;0.90;;;;;;;18.14;40.60;101874.78;5146368;27;20055;-58
2022/04/11 07:35:36;;;;;;;1.45;1.00;;;;;;;18.15;40.82;101873.81;5145863;27;20023;-58
2022/04/11 07:38:02;;;;;;;1.70;1.17;;;;;;;18.14;40.79;101872.94;5145708;27;20055;-57
2022/04/11 07:40:28;;;;;;;2.35;1.00;;;;;;;18.14;40.60;101864.03;5145761;27;20031;-58
2022/04/11 07:42:54;;;;;;;1.02;0.90;;;;;;;18.13;40.54;101870.38;5145348;27;20035;-58
2022/04/11 07:45:20;;;;;;;1.98;1.10;;;;;;;18.14;40.62;101864.03;5146000;27;20062;-58
2022/04/11 07:47:45;;;;;;;1.13;1.02;;;;;;;18.12;40.53;101866.84;5142530;27;20061;-58
2022/04/11 07:50:11;;;;;;;1.30;1.02;;;;;;;18.13;40.56;101862.31;5137774;27;20031;-58
2022/04/11 07:52:37;;;;;;;1.30;1.10;;;;;;;18.12;40.79;101856.06;5132716;27;20511;-58
2022/04/11 07:55:03;;;;;;;1.55;1.30;;;;;;;18.11;40.61;101859.75;5145396;27;20102;-57
2022/04/11 07:57:29;;;;;;;1.10;1.00;;;;;;;18.11;40.45;101862.47;5145230;27;20124;-58
2022/04/11 07:59:54;;;;;;;1.42;1.10;;;;;;;18.12;40.66;101860.63;5145744;27;20726;-58
2022/04/11 08:02:26;;;;;;;1.10;1.00;;;;;;;18.14;40.47;101850.56;5139527;27;20114;-58
2022/04/11 08:04:54;;;;;;;1.25;1.10;;;;;;;18.12;40.60;101856.06;5125108;28;20055;-58
2022/04/11 08:07:20;;;;;;;1.98;1.23;;;;;;;18.13;40.41;101859.63;5143182;27;20462;-58
2022/04/11 08:09:45;;;;;;;1.83;1.20;;;;;;;18.11;40.46;101859.75;5145287;27;20031;-58
2022/04/11 08:12:11;;;;;;;0.93;0.88;;;;;;;18.12;40.51;101849.84;5144580;27;20041;-58
2022/04/11 08:14:36;;;;;;;1.95;1.30;;;;;;;18.11;40.47;101854.38;5124708;28;20020;-58
2022/04/11 08:17:04;;;;;;;1.20;1.10;;;;;;;18.14;40.49;101854.09;5125034;28;20114;-59
2022/04/11 08:19:30;;;;;;;1.27;1.02;;;;;;;18.14;40.55;101843.34;5144015;27;20035;-59
2022/04/11 08:21:55;;;;;;;1.05;0.90;;;;;;;18.16;40.59;101837.81;5144568;27;20076;-59
2022/04/11 08:24:21;;;;;;;1.33;1.15;;;;;;;18.15;40.59;101836.97;5144554;27;20855;-59
2022/04/11 08:26:46;;;;;;;1.42;1.20;;;;;;;18.15;40.67;101842.34;5137720;27;20038;-59
2022/04/11 08:29:11;;;;;;;1.35;1.13;;;;;;;18.14;40.50;101843.34;5124662;28;20024;-59
2022/04/11 08:31:36;;;;;;;1.63;1.10;;;;;;;18.15;40.68;101836.13;5124771;27;20118;-59
2022/04/11 08:34:02;;;;;;;1.30;1.00;;;;;;;18.15;40.59;101834.28;5126931;27;20016;-59
2022/04/11 08:36:27;;;;;;;1.60;1.20;;;;;;;18.16;40.89;101827.88;5134719;27;20027;-59
2022/04/11 08:38:52;;;;;;;1.30;1.10;;;;;;;18.14;40.79;101823.66;5137467;27;20562;-60
2022/04/11 08:41:19;;;;;;;1.40;1.30;;;;;;;18.17;40.67;101829.59;5143852;27;20029;-59
2022/04/11 08:43:45;;;;;;;1.50;1.20;;;;;;;18.18;40.70;101827.72;5132523;27;20035;-59
2022/04/11 08:46:13;;;;;;;1.00;1.00;;;;;;;18.19;40.68;101824.06;5134703;27;20023;-60
2022/04/11 08:48:39;;;;;;;1.20;1.10;;;;;;;18.19;40.96;101819.53;5140207;27;20055;-59
2022/04/11 08:51:04;;;;;;;1.17;1.05;;;;;;;18.19;41.07;101822.22;5127182;27;20130;-59
2022/04/11 08:53:30;;;;;;;1.30;1.20;;;;;;;18.18;40.97;101817.84;5105792;27;20057;-59
2022/04/11 08:55:55;;;;;;;1.58;1.35;;;;;;;18.20;41.08;101829.31;5128127;27;20042;-56
2022/04/11 08:58:20;;;;;;;1.25;1.15;;;;;;;18.21;40.92;101830.16;5107201;28;20055;-59
2022/04/11 09:00:46;;;;;;;1.38;1.00;;;;;;;18.20;40.96;101829.31;5133886;27;20113;-59
2022/04/11 09:03:11;;;;;;;1.52;0.80;;;;;;;18.22;40.96;101824.66;5141646;27;20111;-59
2022/04/11 09:05:36;;;;;;;1.17;1.08;;;;;;;18.21;40.94;101825.63;5143930;27;20039;-59
2022/04/11 09:08:02;;;;;;;2.33;1.38;;;;;;;18.22;41.10;101824.66;5119452;28;20035;-58
2022/04/11 09:10:32;;;;;;;1.10;1.00;;;;;;;18.23;41.16;101820.13;5122968;27;20094;-62
2022/04/11 09:13:02;;;;;;;1.50;0.90;;;;;;;18.24;41.09;101819.13;5136561;27;20027;-60
2022/04/11 09:15:28;;;;;;;1.40;1.30;;;;;;;18.20;41.07;101821.22;5133228;27;20415;-60
2022/04/11 09:17:55;;;;;;;2.05;1.35;;;;;;;18.24;41.41;101817.25;5134934;27;20114;-59
2022/04/11 09:20:30;;;;;;;1.17;1.00;;;;;;;18.27;41.25;101809.91;5140331;27;20035;-60
2022/04/11 09:22:56;;;;;;;1.63;1.10;;;;;;;18.26;41.36;101808.19;5141417;27;20038;-59
2022/04/11 09:25:29;;;;;;;1.35;1.05;;;;;;;18.21;41.54;101806.78;5140759;27;20098;-57
2022/04/11 09:28:07;;;;;;;1.42;1.10;;;;;;;18.28;41.29;101812.44;5141220;28;20472;-59
2022/04/11 09:30:33;;;;;;;1.38;1.10;;;;;;;18.25;41.51;101807.34;5136159;28;20109;-59
2022/04/11 09:32:58;;;;;;;1.05;0.95;;;;;;;18.27;41.75;101810.75;5141331;28;20043;-59
2022/04/11 09:35:24;;;;;;;1.88;1.15;;;;;;;18.28;41.39;101804.38;5139313;28;20499;-58
2022/04/11 09:38:10;;;;;;;1.65;1.20;;;;;;;18.29;41.28;101803.38;5139171;28;20122;-59
2022/04/11 09:40:40;;;;;;;2.88;1.58;;;;;;;18.30;41.36;101805.06;5141181;28;20023;-58
2022/04/11 09:43:06;;;;;;;1.33;1.00;;;;;;;18.30;41.58;101802.38;5143654;27;20026;-58
2022/04/11 09:45:31;;;;;;;1.70;1.05;;;;;;;18.32;41.57;101796.88;5144846;27;20077;-58
2022/04/11 09:48:00;;;;;;;1.80;1.40;;;;;;;18.35;41.46;101791.19;5125437;27;20035;-59
2022/04/11 09:50:30;;;;;;;1.58;1.23;;;;;;;18.37;41.00;101798.13;5145393;27;20031;-59
2022/04/11 09:53:07;;;;;;;1.95;1.20;;;;;;;18.41;41.16;101796.00;5127040;27;20050;-59
2022/04/11 09:55:33;;;;;;;2.70;1.63;;;;;;;18.40;41.11;101787.09;5141127;27;20034;-59
2022/04/11 09:57:59;;;;;;;1.90;1.42;;;;;;;18.41;41.08;101778.00;5127330;27;20019;-59
2022/04/11 10:00:24;;;;;;;1.80;1.50;;;;;;;18.42;41.13;101771.63;5125996;27;21033;-60
2022/04/11 10:02:49;;;;;;;2.10;1.48;;;;;;;18.42;41.14;101779.69;5144822;27;20046;-60
2022/04/11 10:05:15;;;;;;;1.77;1.33;;;;;;;18.43;41.10;101772.47;5144724;27;20023;-62
2022/04/11 10:07:40;;;;;;;1.27;1.17;;;;;;;18.42;40.81;101776.16;5144818;27;20027;-61
2022/04/11 10:10:08;;;;;;;2.58;1.33;;;;;;;18.43;41.23;101775.16;5126650;27;20038;-60
2022/04/11 10:12:33;;;;;;;2.03;1.13;;;;;;;18.42;41.15;101779.69;5127796;27;20666;-62
2022/04/11 10:14:59;;;;;;;1.60;1.17;;;;;;;18.43;41.28;101773.31;5125992;27;20098;-60
2022/04/11 10:17:24;;;;;;;2.75;1.33;;;;;;;18.43;41.16;101769.78;5126259;27;20035;-60
2022/04/11 10:19:50;;;;;;;1.30;1.15;;;;;;;18.44;41.58;101774.19;5144864;27;20050;-60
2022/04/11 10:22:21;;;;;;;1.73;1.17;;;;;;;18.46;41.23;101774.88;5144946;27;20035;-59
2022/04/11 10:24:58;;;;;;;2.22;1.13;;;;;;;18.47;41.38;101774.72;5125518;27;20037;-60
2022/04/11 10:27:25;;;;;;;1.50;1.05;;;;;;;18.46;41.32;101773.03;5126484;27;20031;-60
2022/04/11 10:29:55;;;;;;;1.20;1.10;;;;;;;18.49;41.68;101761.97;5145594;27;20027;-60
2022/04/11 10:32:21;;;;;;;1.48;1.00;;;;;;;18.48;41.44;101768.38;5145479;27;20023;-60
2022/04/11 10:34:58;;;;;;;1.38;1.10;;;;;;;18.52;41.63;101759.97;5144480;27;20404;-58
2022/04/11 10:37:27;;;;;;;1.08;0.98;;;;;;;18.51;41.62;101756.44;5144977;27;20079;-60
2022/04/11 10:39:52;;;;;;;;;;;;;;;18.48;41.71;101751.34;5144134;28;20108;-59
2022/04/11 10:42:20;;;;;;;2.78;1.27;;;;;;;18.49;41.87;101755.75;5143304;28;19927;-59
2022/04/11 10:44:54;;;;;;;1.52;1.10;;;;;;;18.52;41.80;101754.59;5142713;28;20047;-61
2022/04/11 10:47:26;;;;;;;1.30;1.10;;;;;;;18.53;41.56;101745.53;5143551;28;20134;-60
2022/04/11 10:49:53;;;;;;;1.30;1.08;;;;;;;18.53;41.65;101754.47;5143909;28;20041;-59
2022/04/11 10:52:31;;;;;;;1.10;1.00;;;;;;;18.56;41.57;101756.84;5143204;28;20023;-59
2022/04/11 10:55:17;;;;;;;1.80;1.20;;;;;;;18.56;41.66;101758.69;5142695;27;20027;-59
2022/04/11 10:57:55;;;;;;;1.10;1.00;;;;;;;18.58;41.64;101745.94;5142944;28;20023;-60
2022/04/11 11:00:28;;;;;;;1.45;1.20;;;;;;;18.49;41.72;101732.34;5143507;28;20023;-58
2022/04/11 11:02:53;;;;;;;2.70;1.67;;;;;;;18.57;42.00;101744.25;5143356;28;20027;-60
2022/04/11 11:05:26;;;;;;;1.23;1.10;;;;;;;18.56;42.05;101731.75;5142661;28;20090;-61
2022/04/11 11:08:19;;;;;;;1.23;1.10;;;;;;;18.60;41.64;101735.84;5143563;28;20055;-60
2022/04/11 11:10:45;;;;;;;1.38;1.20;;;;;;;18.59;42.10;101740.41;5136770;28;20065;-61
2022/04/11 11:13:32;;;;;;;1.90;1.10;;;;;;;18.60;41.96;101734.00;5143149;28;20031;-61
2022/04/11 11:16:00;;;;;;;1.63;1.13;;;;;;;18.62;42.17;101725.81;5142696;28;20110;-61
2022/04/11 11:18:26;;;;;;;1.13;1.02;;;;;;;18.59;41.85;101726.94;5143564;28;20117;-57
2022/04/11 11:20:56;;;;;;;1.08;0.95;;;;;;;18.64;42.19;101726.50;5142921;28;20027;-60